Time;durP1;ratioP1;P1;durP2;ratioP2;P2;SDS_P1;SDS_P2;PMS_P1;PMS_P2;Temp;Humidity;BMP_temperature;BMP_pressure;BME280_temperature;BME280_humidity;BME280_pressure;Samples;Min_cycle;Max_cycle;Signal;HPM_P1;HPM_P2
2023/12/23 00:00:41;;;;;;;1.77;0.80;;;;;;;4.86;100.00;93530.06;5086351;28;20052;-75
2023/12/23 00:03:08;;;;;;;1.85;1.00;;;;;;;4.88;100.00;93535.13;5070127;28;20089;-74
2023/12/23 00:05:34;;;;;;;1.70;0.90;;;;;;;4.94;100.00;93550.66;5078456;28;20040;-73
2023/12/23 00:08:01;;;;;;;3.53;1.70;;;;;;;4.87;100.00;93531.66;5088598;28;20054;-73
2023/12/23 00:10:29;;;;;;;1.97;1.03;;;;;;;4.91;100.00;93535.13;5088404;28;20059;-75
2023/12/23 00:12:56;;;;;;;1.80;0.90;;;;;;;4.81;100.00;93541.34;5088007;28;20104;-74
2023/12/23 00:15:23;;;;;;;1.80;1.02;;;;;;;4.88;100.00;93530.47;5088666;28;20405;-74
2023/12/23 00:17:50;;;;;;;1.80;0.80;;;;;;;4.88;100.00;93540.56;5088017;28;20485;-74
2023/12/23 00:20:17;;;;;;;1.90;1.10;;;;;;;4.83;100.00;93544.47;5088374;28;20044;-74
2023/12/23 00:22:44;;;;;;;1.70;1.00;;;;;;;4.86;100.00;93543.66;5088058;28;20577;-73
2023/12/23 00:25:11;;;;;;;2.00;0.80;;;;;;;4.88;100.00;93546.00;5088149;28;20477;-74
2023/12/23 00:27:38;;;;;;;1.50;0.70;;;;;;;4.91;100.00;93551.44;5087799;28;20048;-73
2023/12/23 00:30:05;;;;;;;1.95;0.50;;;;;;;4.95;100.00;93546.00;5088090;28;20654;-73
2023/12/23 00:32:32;;;;;;;10.10;4.78;;;;;;;4.86;100.00;93564.66;5067563;28;20467;-73
2023/12/23 00:34:59;;;;;;;2.87;1.00;;;;;;;4.93;100.00;93567.34;5087939;28;20044;-74
2023/12/23 00:37:26;;;;;;;2.42;1.40;;;;;;;4.95;100.00;93573.19;5087924;28;20100;-73
2023/12/23 00:39:53;;;;;;;1.70;0.93;;;;;;;4.85;100.00;93568.53;5087058;28;20058;-73
2023/12/23 00:42:19;;;;;;;1.70;0.80;;;;;;;4.81;100.00;93573.97;5087753;28;20473;-73
2023/12/23 00:44:46;;;;;;;1.52;0.82;;;;;;;4.71;100.00;93591.03;5084284;28;20653;-73
2023/12/23 00:47:14;;;;;;;1.70;0.80;;;;;;;4.75;100.00;93583.69;5090954;28;20044;-73
2023/12/23 00:49:41;;;;;;;1.63;0.90;;;;;;;4.85;100.00;93593.00;5091138;28;20054;-73
2023/12/23 00:52:08;;;;;;;2.20;1.17;;;;;;;4.79;100.00;93590.66;5071601;28;20045;-73
2023/12/23 00:54:34;;;;;;;1.70;0.90;;;;;;;4.78;100.00;93599.19;5077450;28;20117;-72
2023/12/23 00:57:01;;;;;;;1.70;0.90;;;;;;;4.75;100.00;93600.00;5091848;28;20060;-73
2023/12/23 00:59:28;;;;;;;1.40;0.60;;;;;;;4.74;100.00;93599.19;5091743;28;20079;-72
2023/12/23 01:01:55;;;;;;;1.60;0.60;;;;;;;4.80;100.00;93599.59;5092385;28;20454;-74
2023/12/23 01:04:21;;;;;;;1.40;0.60;;;;;;;4.80;100.00;93608.53;5071616;28;20051;-73
2023/12/23 01:06:50;;;;;;;1.70;0.80;;;;;;;4.88;100.00;93608.53;5091810;28;20079;-73
2023/12/23 01:09:17;;;;;;;1.63;0.93;;;;;;;4.85;100.00;93623.69;5091273;28;20438;-73
2023/12/23 01:11:43;;;;;;;1.60;0.77;;;;;;;4.85;100.00;93607.38;5069957;28;20044;-74
2023/12/23 01:14:10;;;;;;;1.60;0.80;;;;;;;4.69;100.00;93610.47;5086668;28;20052;-73
2023/12/23 01:16:37;;;;;;;1.60;0.90;;;;;;;4.66;100.00;93618.59;5091288;28;20036;-73
2023/12/23 01:19:04;;;;;;;1.50;0.80;;;;;;;4.75;100.00;93617.06;5090993;28;20048;-74
2023/12/23 01:21:30;;;;;;;1.65;0.73;;;;;;;4.71;100.00;93624.44;5091512;28;20054;-73
2023/12/23 01:23:57;;;;;;;1.50;0.87;;;;;;;4.81;100.00;93636.50;5091520;28;20110;-73
2023/12/23 01:26:24;;;;;;;2.40;0.80;;;;;;;4.72;100.00;93634.13;5089733;28;20054;-74
2023/12/23 01:28:50;;;;;;;1.50;0.80;;;;;;;4.83;100.00;93634.19;5090580;28;20196;-74
2023/12/23 01:31:18;;;;;;;1.40;0.70;;;;;;;4.76;100.00;93647.75;5070058;28;20082;-74
2023/12/23 01:33:45;;;;;;;1.70;0.98;;;;;;;4.75;100.00;93638.03;5084900;28;20047;-73
2023/12/23 01:36:12;;;;;;;1.40;0.70;;;;;;;4.72;100.00;93641.53;5091606;28;20052;-73
2023/12/23 01:38:39;;;;;;;1.40;0.60;;;;;;;4.83;100.00;93636.09;5090631;28;20502;-73
2023/12/23 01:41:06;;;;;;;1.95;0.70;;;;;;;4.77;100.00;93652.81;5091117;28;20054;-74
2023/12/23 01:43:33;;;;;;;1.50;0.82;;;;;;;4.80;100.00;93656.69;5068979;28;20048;-73
2023/12/23 01:46:00;;;;;;;1.67;1.00;;;;;;;4.81;100.00;93658.25;5087168;28;20050;-74
2023/12/23 01:48:28;;;;;;;1.50;0.73;;;;;;;4.87;100.00;93664.06;5072665;28;20513;-73
2023/12/23 01:50:57;;;;;;;1.60;1.00;;;;;;;5.02;100.00;93664.91;5091329;28;20044;-73
2023/12/23 01:53:25;;;;;;;1.60;0.82;;;;;;;4.84;100.00;93671.06;5078700;28;20036;-73
2023/12/23 01:55:52;;;;;;;1.60;1.00;;;;;;;4.91;100.00;93667.56;5070921;28;21766;-73
2023/12/23 01:58:20;;;;;;;1.77;0.88;;;;;;;4.88;100.00;93665.63;5090473;28;20044;-73
2023/12/23 02:00:47;;;;;;;1.60;0.87;;;;;;;4.77;100.00;93666.41;5090509;28;20172;-73
2023/12/23 02:03:14;;;;;;;1.52;0.70;;;;;;;4.68;100.00;93676.06;5069051;28;20451;-73
2023/12/23 02:05:42;;;;;;;1.83;0.90;;;;;;;4.67;100.00;93680.75;5082291;28;20044;-74
2023/12/23 02:08:09;;;;;;;1.50;0.80;;;;;;;4.68;100.00;93690.44;5090635;28;20048;-73
2023/12/23 02:10:36;;;;;;;1.77;0.90;;;;;;;4.70;100.00;93692.78;5090132;28;20048;-73
2023/12/23 02:13:05;;;;;;;1.40;0.70;;;;;;;4.66;100.00;93681.88;5090509;28;20040;-73
2023/12/23 02:15:42;;;;;;;1.77;0.70;;;;;;;4.64;100.00;93683.44;5090197;28;20042;-73
2023/12/23 02:18:09;;;;;;;1.60;0.80;;;;;;;4.71;100.00;93683.44;5069698;28;20045;-73
2023/12/23 02:20:37;;;;;;;1.50;0.70;;;;;;;4.79;100.00;93677.66;5082650;28;20059;-73
2023/12/23 02:23:04;;;;;;;1.80;1.10;;;;;;;4.56;100.00;93683.41;5090387;28;20435;-73
2023/12/23 02:25:32;;;;;;;1.80;0.80;;;;;;;4.51;100.00;93689.22;5089821;28;20048;-73
2023/12/23 02:28:03;;;;;;;4.03;1.45;;;;;;;4.42;100.00;93682.56;5090660;28;20402;-74
2023/12/23 02:30:33;;;;;;;2.25;1.13;;;;;;;4.60;100.00;93697.00;5068685;28;20386;-73
2023/12/23 02:33:01;;;;;;;1.90;0.85;;;;;;;4.67;100.00;93697.03;5081894;28;20070;-74
2023/12/23 02:35:28;;;;;;;1.80;1.02;;;;;;;4.71;100.00;93700.56;5089357;28;20036;-73
2023/12/23 02:37:55;;;;;;;1.60;0.70;;;;;;;4.83;100.00;93714.94;5090055;28;20048;-73
2023/12/23 02:40:22;;;;;;;1.80;0.80;;;;;;;4.79;100.00;93710.28;5089982;28;20070;-73
2023/12/23 02:42:48;;;;;;;1.50;0.68;;;;;;;4.82;100.00;93691.66;5089460;28;20048;-73
2023/12/23 02:45:16;;;;;;;2.85;1.40;;;;;;;4.48;100.00;93691.91;5088484;28;20052;-74
2023/12/23 02:47:42;;;;;;;2.70;1.40;;;;;;;4.62;100.00;93691.97;5089552;28;20083;-73
2023/12/23 02:50:09;;;;;;;2.30;0.97;;;;;;;4.52;100.00;93693.47;5089819;28;20121;-73
2023/12/23 02:52:36;;;;;;;4.05;1.77;;;;;;;4.59;100.00;93690.81;5083516;28;20052;-73
2023/12/23 02:55:03;;;;;;;2.10;1.20;;;;;;;4.70;100.00;93693.53;5070229;28;20051;-74
2023/12/23 02:57:30;;;;;;;2.35;0.90;;;;;;;4.71;100.00;93684.25;5083506;28;20056;-72
2023/12/23 02:59:57;;;;;;;1.80;0.98;;;;;;;4.58;100.00;93693.91;5089767;28;20042;-73
2023/12/23 03:02:23;;;;;;;1.60;0.80;;;;;;;4.62;100.00;93688.47;5068522;28;20045;-73
2023/12/23 03:04:50;;;;;;;1.45;0.70;;;;;;;4.56;100.00;93682.63;5088926;28;20071;-74
2023/12/23 03:07:17;;;;;;;3.65;2.03;;;;;;;4.57;100.00;93695.06;5089473;28;20039;-73
2023/12/23 03:09:43;;;;;;;2.63;1.15;;;;;;;4.60;100.00;93697.78;5075186;28;20043;-73
2023/12/23 03:12:10;;;;;;;1.83;0.90;;;;;;;4.72;100.00;93695.88;5089054;28;20456;-73
2023/12/23 03:14:37;;;;;;;1.70;0.87;;;;;;;4.31;100.00;93704.28;5089039;28;20046;-73
2023/12/23 03:17:04;;;;;;;1.90;0.75;;;;;;;4.51;100.00;93708.25;5089884;28;20040;-74
2023/12/23 03:19:30;;;;;;;1.83;0.90;;;;;;;4.52;100.00;93690.75;5088612;28;20052;-73
2023/12/23 03:21:57;;;;;;;1.67;1.00;;;;;;;4.56;100.00;93702.41;5089392;28;20052;-73
2023/12/23 03:24:24;;;;;;;1.80;0.98;;;;;;;4.67;100.00;93701.69;5088016;28;20047;-73
2023/12/23 03:26:51;;;;;;;1.87;0.87;;;;;;;4.56;100.00;93707.09;5070226;28;21666;-73
2023/12/23 03:29:17;;;;;;;1.92;0.93;;;;;;;4.52;100.00;93701.63;5089395;28;20421;-73
2023/12/23 03:31:44;;;;;;;3.00;1.35;;;;;;;4.52;100.00;93709.00;5067206;28;20437;-73
2023/12/23 03:34:11;;;;;;;2.13;1.08;;;;;;;4.57;100.00;93716.81;5083196;28;20101;-73
2023/12/23 03:36:38;;;;;;;2.75;1.10;;;;;;;4.59;100.00;93701.66;5070384;28;20056;-72
2023/12/23 03:39:05;;;;;;;1.80;1.10;;;;;;;4.59;100.00;93703.63;5089439;28;20056;-73
2023/12/23 03:41:32;;;;;;;1.92;1.00;;;;;;;4.60;100.00;93708.66;5088443;28;20128;-72
2023/12/23 03:43:59;;;;;;;2.03;1.20;;;;;;;4.64;100.00;93714.09;5089403;28;20047;-73
2023/12/23 03:46:27;;;;;;;1.98;0.90;;;;;;;4.66;100.00;93711.00;5086989;28;20054;-72
2023/12/23 03:48:54;;;;;;;1.83;0.90;;;;;;;4.63;100.00;93719.91;5088941;28;20124;-73
2023/12/23 03:51:21;;;;;;;1.80;0.80;;;;;;;4.61;100.00;93712.16;5088639;28;20052;-73
2023/12/23 03:53:48;;;;;;;1.55;0.80;;;;;;;4.62;100.00;93715.66;5072607;28;20033;-73
2023/12/23 03:56:14;;;;;;;3.17;1.70;;;;;;;4.60;100.00;93721.47;5071918;28;20062;-73
2023/12/23 03:58:41;;;;;;;2.95;1.90;;;;;;;4.63;100.00;93718.00;5074896;28;20044;-73
2023/12/23 04:01:08;;;;;;;2.15;0.95;;;;;;;4.65;100.00;93721.13;5088714;28;20048;-73
2023/12/23 04:03:35;;;;;;;1.83;1.07;;;;;;;4.59;100.00;93723.41;5087956;28;20048;-73
2023/12/23 04:06:02;;;;;;;2.10;1.00;;;;;;;4.58;100.00;93718.34;5088688;28;20085;-73
2023/12/23 04:08:29;;;;;;;1.70;1.00;;;;;;;4.52;100.00;93717.16;5088170;28;20043;-73
2023/12/23 04:10:58;;;;;;;1.50;0.70;;;;;;;4.55;100.00;93716.41;5088473;28;20101;-73
2023/12/23 04:13:25;;;;;;;1.50;0.77;;;;;;;4.58;100.00;93729.22;5088209;28;20047;-73
2023/12/23 04:15:52;;;;;;;1.63;0.70;;;;;;;4.62;100.00;93723.81;5087630;28;20757;-73
2023/12/23 04:18:18;;;;;;;2.20;1.30;;;;;;;4.65;100.00;93718.41;5088370;28;20070;-73
2023/12/23 04:20:45;;;;;;;3.10;2.20;;;;;;;4.71;100.00;93713.34;5070213;28;20052;-73
2023/12/23 04:23:12;;;;;;;2.20;0.95;;;;;;;4.68;100.00;93705.97;5091295;28;20048;-73
2023/12/23 04:25:39;;;;;;;1.60;0.80;;;;;;;4.67;100.00;93683.47;5091902;28;20058;-73
2023/12/23 04:28:06;;;;;;;1.60;0.80;;;;;;;4.61;100.00;93698.56;5091718;28;20040;-73
2023/12/23 04:30:32;;;;;;;1.40;0.50;;;;;;;4.72;100.00;93709.47;5092021;28;20040;-72
2023/12/23 04:32:59;;;;;;;1.70;1.10;;;;;;;4.69;100.00;93707.50;5089945;28;20036;-73
2023/12/23 04:35:26;;;;;;;1.50;0.73;;;;;;;4.65;100.00;93704.00;5091784;28;20044;-72
2023/12/23 04:37:53;;;;;;;1.75;0.80;;;;;;;4.74;100.00;93702.50;5074558;28;20044;-73
2023/12/23 04:40:20;;;;;;;1.70;0.93;;;;;;;4.69;100.00;93694.72;5092315;28;20569;-73
2023/12/23 04:42:46;;;;;;;1.70;0.80;;;;;;;4.70;100.00;93707.13;5091714;28;20417;-73
2023/12/23 04:45:13;;;;;;;1.63;0.85;;;;;;;4.57;100.00;93689.63;5088555;28;20068;-73
2023/12/23 04:47:40;;;;;;;1.60;0.68;;;;;;;4.58;100.00;93688.47;5091302;28;20466;-73
2023/12/23 04:50:07;;;;;;;1.90;1.10;;;;;;;4.55;100.00;93672.94;5074417;28;20052;-73
2023/12/23 04:52:34;;;;;;;1.80;0.87;;;;;;;4.55;100.00;93681.09;5085782;28;20049;-73
2023/12/23 04:55:05;;;;;;;1.50;0.70;;;;;;;4.53;100.00;93691.56;5072271;28;20052;-73
2023/12/23 04:57:34;;;;;;;1.60;0.70;;;;;;;4.61;100.00;93687.72;5085866;28;20047;-73
2023/12/23 05:00:01;;;;;;;2.03;0.80;;;;;;;4.57;100.00;93695.06;5091898;28;20043;-73
2023/12/23 05:02:27;;;;;;;1.85;0.98;;;;;;;4.57;100.00;93705.94;5091265;28;20042;-72
2023/12/23 05:04:54;;;;;;;2.17;0.80;;;;;;;4.65;100.00;93693.13;5078781;28;20052;-72
2023/12/23 05:07:21;;;;;;;1.70;0.70;;;;;;;4.51;100.00;93707.47;5090403;28;20055;-73
2023/12/23 05:09:47;;;;;;;2.13;1.00;;;;;;;4.63;100.00;93709.03;5091578;28;20415;-72
2023/12/23 05:12:14;;;;;;;2.97;0.80;;;;;;;4.62;100.00;93708.28;5091337;28;20044;-73
2023/12/23 05:14:41;;;;;;;1.80;0.80;;;;;;;4.55;100.00;93714.47;5091305;28;20043;-72
2023/12/23 05:17:07;;;;;;;1.50;0.70;;;;;;;4.58;100.00;93697.38;5091803;28;20052;-72
2023/12/23 05:19:34;;;;;;;2.17;0.88;;;;;;;4.59;100.00;93685.38;5090116;28;20052;-72
2023/12/23 05:22:01;;;;;;;2.10;1.30;;;;;;;4.55;100.00;93687.28;5091615;28;20102;-73
2023/12/23 05:24:28;;;;;;;2.97;1.02;;;;;;;4.63;100.00;93685.38;5090479;28;20489;-72
2023/12/23 05:26:54;;;;;;;3.30;1.02;;;;;;;4.57;100.00;93695.06;5091287;28;20054;-72
2023/12/23 05:29:24;;;;;;;3.00;1.10;;;;;;;4.48;100.00;93691.91;5091389;28;20052;-73
2023/12/23 05:31:51;;;;;;;3.00;1.60;;;;;;;4.54;100.00;93703.97;5090286;28;20044;-73
2023/12/23 05:34:18;;;;;;;3.03;1.38;;;;;;;4.52;100.00;93684.56;5088592;28;20048;-73
2023/12/23 05:36:45;;;;;;;2.33;1.20;;;;;;;4.54;100.00;93698.53;5090721;28;20040;-72
2023/12/23 05:39:11;;;;;;;2.10;0.80;;;;;;;4.44;100.00;93685.69;5091470;28;20050;-73
2023/12/23 05:41:38;;;;;;;3.87;1.43;;;;;;;4.54;100.00;93685.72;5090192;28;20055;-72
2023/12/23 05:44:05;;;;;;;1.83;1.00;;;;;;;4.53;100.00;93681.47;5091147;28;20051;-73
2023/12/23 05:46:33;;;;;;;2.30;1.00;;;;;;;4.63;100.00;93679.16;5072774;28;20040;-72
2023/12/23 05:49:00;;;;;;;2.13;0.90;;;;;;;4.66;100.00;93686.56;5091100;28;20078;-73
2023/12/23 05:51:27;;;;;;;2.10;1.10;;;;;;;4.57;100.00;93693.13;5068536;28;20041;-71
2023/12/23 05:53:53;;;;;;;2.00;1.07;;;;;;;4.54;100.00;93696.59;5072076;28;20363;-72
2023/12/23 05:56:20;;;;;;;3.70;0.82;;;;;;;4.58;100.00;93702.81;5075206;28;20112;-73
2023/12/23 05:58:47;;;;;;;2.58;0.93;;;;;;;4.57;100.00;93703.22;5090448;28;20047;-72
2023/12/23 06:01:14;;;;;;;1.63;0.73;;;;;;;4.57;100.00;93687.69;5072783;28;20044;-73
2023/12/23 06:03:40;;;;;;;1.98;0.77;;;;;;;4.62;100.00;93693.91;5090363;28;20044;-72
2023/12/23 06:06:07;;;;;;;1.90;0.83;;;;;;;4.78;100.00;93691.63;5090762;28;20052;-73
2023/12/23 06:08:34;;;;;;;1.50;0.70;;;;;;;4.79;100.00;93704.09;5089764;28;20109;-72
2023/12/23 06:11:02;;;;;;;2.05;0.80;;;;;;;4.79;100.00;93706.78;5090620;28;20048;-72
2023/12/23 06:13:31;;;;;;;1.70;0.85;;;;;;;4.85;100.00;93715.34;5090431;28;20415;-72
2023/12/23 06:16:04;;;;;;;2.03;0.80;;;;;;;4.90;100.00;93707.59;5090292;28;20040;-73
2023/12/23 06:18:31;;;;;;;1.57;0.80;;;;;;;4.85;100.00;93709.91;5090117;28;20423;-72
2023/12/23 06:20:58;;;;;;;1.85;0.80;;;;;;;4.91;100.00;93697.47;5090226;28;20048;-72
2023/12/23 06:23:25;;;;;;;2.60;1.38;;;;;;;4.69;100.00;93691.19;5068977;28;20490;-73
2023/12/23 06:25:52;;;;;;;2.75;1.13;;;;;;;4.70;100.00;93688.09;5084698;28;20625;-73
2023/12/23 06:28:18;;;;;;;1.88;0.70;;;;;;;4.71;100.00;93686.97;5089082;28;20044;-73
2023/12/23 06:30:45;;;;;;;2.27;0.70;;;;;;;4.66;100.00;93700.13;5089823;28;20066;-72
2023/12/23 06:33:12;;;;;;;1.90;0.77;;;;;;;4.76;100.00;93691.25;5087700;28;20048;-74
2023/12/23 06:35:39;;;;;;;1.52;0.73;;;;;;;4.42;100.00;93683.34;5089276;28;20047;-72
2023/12/23 06:38:06;;;;;;;2.05;0.85;;;;;;;4.27;100.00;93692.59;5089864;28;20056;-72
2023/12/23 06:40:32;;;;;;;1.98;1.00;;;;;;;4.54;100.00;93698.53;5089151;28;20436;-73
2023/12/23 06:43:00;;;;;;;1.63;0.70;;;;;;;4.57;100.00;93690.41;5089819;28;20051;-73
2023/12/23 06:45:47;;;;;;;2.45;0.93;;;;;;;4.54;100.00;93693.09;5087340;28;20047;-70
2023/12/23 06:48:13;;;;;;;2.45;1.00;;;;;;;4.58;100.00;93675.63;5089922;28;20032;-73
2023/12/23 06:50:40;;;;;;;2.78;1.20;;;;;;;4.69;100.00;93672.19;5089253;28;20511;-71
2023/12/23 06:53:08;;;;;;;2.50;1.00;;;;;;;4.63;100.00;93668.28;5068271;28;20056;-72
2023/12/23 06:55:35;;;;;;;1.67;0.60;;;;;;;4.54;100.00;93655.06;5082021;28;20040;-72
2023/12/23 06:58:02;;;;;;;2.72;1.00;;;;;;;4.56;100.00;93671.75;5089745;28;20052;-73
2023/12/23 07:00:32;;;;;;;1.90;0.85;;;;;;;4.60;100.00;93680.69;5070197;28;20056;-72
2023/12/23 07:02:59;;;;;;;1.70;0.80;;;;;;;4.59;100.00;93673.72;5071657;28;20048;-72
2023/12/23 07:05:26;;;;;;;1.88;1.00;;;;;;;4.63;100.00;93668.28;5089685;28;20040;-71
2023/12/23 07:07:52;;;;;;;2.97;1.00;;;;;;;4.65;100.00;93668.66;5069251;28;20820;-73
2023/12/23 07:10:19;;;;;;;1.95;1.08;;;;;;;4.68;100.00;93665.97;5075589;28;20044;-70
2023/12/23 07:12:46;;;;;;;4.10;1.40;;;;;;;4.79;100.00;93677.66;5089417;28;20055;-71
2023/12/23 07:15:13;;;;;;;2.53;0.80;;;;;;;4.81;100.00;93685.44;5067851;28;20036;-71
2023/12/23 07:17:40;;;;;;;1.70;1.00;;;;;;;4.78;100.00;93689.69;5080590;28;20066;-72
2023/12/23 07:20:09;;;;;;;2.10;1.17;;;;;;;4.86;100.00;93673.41;5089375;28;20040;-71
2023/12/23 07:22:36;;;;;;;3.17;0.80;;;;;;;4.97;100.00;93668.75;5074249;28;20044;-72
2023/12/23 07:25:03;;;;;;;2.33;0.80;;;;;;;4.90;100.00;93679.63;5087993;28;20040;-71
2023/12/23 07:27:31;;;;;;;1.80;0.88;;;;;;;4.91;100.00;93681.16;5088897;28;20048;-71
2023/12/23 07:29:58;;;;;;;2.17;1.25;;;;;;;4.90;100.00;93683.13;5088919;28;20051;-72
2023/12/23 07:32:25;;;;;;;2.53;0.93;;;;;;;4.89;100.00;93678.06;5086881;28;20431;-72
2023/12/23 07:34:53;;;;;;;2.00;0.80;;;;;;;4.84;100.00;93676.50;5085484;28;20064;-71
2023/12/23 07:37:20;;;;;;;2.70;1.15;;;;;;;4.86;100.00;93684.28;5088892;28;20070;-71
2023/12/23 07:39:47;;;;;;;2.67;0.98;;;;;;;4.84;100.00;93692.81;5070553;28;20042;-71
2023/12/23 07:42:14;;;;;;;6.15;2.47;;;;;;;4.97;100.00;93679.63;5088799;28;20050;-72
2023/12/23 07:44:40;;;;;;;4.17;1.60;;;;;;;4.95;100.00;93679.25;5091261;28;20036;-71
2023/12/23 07:47:09;;;;;;;3.83;1.80;;;;;;;4.91;100.00;93676.53;5088756;28;20439;-70
2023/12/23 07:49:36;;;;;;;5.13;2.25;;;;;;;4.91;100.00;93683.88;5088474;28;20040;-69
2023/12/23 07:52:06;;;;;;;2.67;1.02;;;;;;;4.92;100.00;93688.94;5088995;28;20044;-69
2023/12/23 07:54:33;;;;;;;1.70;0.90;;;;;;;4.89;100.00;93687.00;5087636;28;20052;-67
2023/12/23 07:57:00;;;;;;;5.17;2.47;;;;;;;4.94;100.00;93694.78;5077635;28;20051;-67
2023/12/23 07:59:27;;;;;;;2.90;1.50;;;;;;;4.99;100.00;93697.13;5079338;28;20048;-67
2023/12/23 08:01:53;;;;;;;4.07;1.92;;;;;;;5.03;100.00;93697.16;5088608;28;20040;-67
2023/12/23 08:04:20;;;;;;;2.25;1.33;;;;;;;4.92;100.00;93690.91;5088682;28;20070;-68
2023/12/23 08:06:47;;;;;;;2.50;1.40;;;;;;;5.08;100.00;93702.19;5072314;28;20048;-67
2023/12/23 08:09:14;;;;;;;3.73;2.00;;;;;;;5.03;100.00;93699.88;5080433;28;20050;-68
2023/12/23 08:11:41;;;;;;;3.33;1.50;;;;;;;5.12;100.00;93689.38;5087567;28;20401;-68
2023/12/23 08:14:07;;;;;;;1.80;1.00;;;;;;;5.22;100.00;93698.72;5088656;28;20040;-67
2023/12/23 08:16:34;;;;;;;8.43;4.32;;;;;;;5.09;100.00;93703.78;5087723;28;20036;-68
2023/12/23 08:19:01;;;;;;;2.60;1.42;;;;;;;5.05;100.00;93692.09;5087401;28;20056;-69
2023/12/23 08:21:28;;;;;;;1.90;0.90;;;;;;;5.03;100.00;93720.81;5087389;28;20062;-67
2023/12/23 08:23:54;;;;;;;3.03;1.50;;;;;;;5.06;100.00;93718.13;5084014;28;20044;-68
2023/12/23 08:26:21;;;;;;;3.38;2.00;;;;;;;5.08;100.00;93718.53;5079625;28;20048;-67
2023/12/23 08:28:48;;;;;;;3.72;2.30;;;;;;;5.09;100.00;93709.22;5088023;28;20056;-68
2023/12/23 08:31:15;;;;;;;2.42;0.93;;;;;;;5.18;100.00;93712.31;5087957;28;20032;-69
2023/12/23 08:33:41;;;;;;;1.73;0.93;;;;;;;5.15;100.00;93706.88;5087579;28;20083;-69
2023/12/23 08:36:08;;;;;;;1.80;0.98;;;;;;;5.10;100.00;93694.44;5088255;28;20046;-69
2023/12/23 08:38:35;;;;;;;2.97;1.60;;;;;;;5.09;100.00;93697.53;5087696;28;20044;-68
2023/12/23 08:41:02;;;;;;;3.88;1.70;;;;;;;5.19;100.00;93710.38;5053671;28;20040;-68
2023/12/23 08:43:29;;;;;;;2.20;1.15;;;;;;;5.09;100.00;93703.78;5081018;28;20040;-69
2023/12/23 08:45:56;;;;;;;2.40;1.10;;;;;;;5.24;100.00;93712.72;5084819;28;20416;-69
2023/12/23 08:48:23;;;;;;;2.28;1.30;;;;;;;5.15;100.00;93704.94;5087829;28;20048;-69
2023/12/23 08:50:50;;;;;;;1.80;1.00;;;;;;;5.11;100.00;93722.41;5087811;28;20048;-68
2023/12/23 08:53:18;;;;;;;2.80;1.98;;;;;;;5.13;100.00;93734.47;5068340;28;20493;-69
2023/12/23 08:55:45;;;;;;;2.10;1.20;;;;;;;5.34;100.00;93730.22;5075529;28;20135;-70
2023/12/23 08:58:13;;;;;;;2.87;1.20;;;;;;;5.31;100.00;93726.34;5082293;28;20044;-69
2023/12/23 09:00:40;;;;;;;2.22;1.20;;;;;;;5.07;100.00;93711.53;5066151;28;20060;-68
2023/12/23 09:03:07;;;;;;;2.67;1.15;;;;;;;5.22;100.00;93722.44;5082461;28;20052;-69
2023/12/23 09:05:34;;;;;;;1.80;0.80;;;;;;;5.11;100.00;93711.53;5087184;28;20044;-68
2023/12/23 09:08:00;;;;;;;2.45;1.10;;;;;;;5.26;100.00;93724.00;5070263;28;20036;-69
2023/12/23 09:10:27;;;;;;;2.67;1.27;;;;;;;5.35;100.00;93718.97;5091133;28;20112;-69
2023/12/23 09:12:54;;;;;;;1.80;0.75;;;;;;;5.00;100.00;93725.09;5071984;28;20055;-68
2023/12/23 09:15:21;;;;;;;3.80;2.05;;;;;;;5.24;100.00;93733.72;5091559;28;20040;-68
2023/12/23 09:17:48;;;;;;;4.00;0.90;;;;;;;5.37;100.00;93718.56;5089640;28;20385;-67
2023/12/23 09:20:15;;;;;;;1.70;0.80;;;;;;;5.13;100.00;93725.50;5091754;28;20081;-68
2023/12/23 09:22:42;;;;;;;1.97;0.90;;;;;;;5.23;100.00;93729.44;5102882;28;20040;-68
2023/12/23 09:25:09;;;;;;;4.10;1.80;;;;;;;5.28;100.00;93739.94;5088538;28;20054;-69
2023/12/23 09:27:36;;;;;;;2.88;1.10;;;;;;;5.33;100.00;93728.66;5080119;28;20530;-68
2023/12/23 09:30:04;;;;;;;3.35;1.10;;;;;;;5.38;100.00;93739.19;5062406;28;20463;-69
2023/12/23 09:32:31;;;;;;;2.70;1.30;;;;;;;5.49;100.00;93752.78;5078893;28;20040;-68
2023/12/23 09:34:58;;;;;;;2.00;0.97;;;;;;;5.34;100.00;93732.97;5091557;28;20051;-69
2023/12/23 09:37:27;;;;;;;1.70;0.90;;;;;;;5.44;100.00;93748.53;5090730;28;20116;-70
2023/12/23 09:39:54;;;;;;;2.85;1.30;;;;;;;5.48;100.00;93754.75;5065048;28;20067;-69
2023/12/23 09:42:22;;;;;;;3.55;1.45;;;;;;;5.43;100.00;93759.78;5091721;28;20048;-68
2023/12/23 09:44:51;;;;;;;2.95;1.70;;;;;;;5.41;100.00;93773.78;5087413;28;20400;-68
2023/12/23 09:47:18;;;;;;;3.63;1.43;;;;;;;5.35;100.00;93781.56;5073514;28;20104;-68
2023/12/23 09:49:45;;;;;;;2.80;0.90;;;;;;;5.38;100.00;93782.72;5090642;28;20052;-69
2023/12/23 09:52:13;;;;;;;6.32;2.53;;;;;;;5.42;100.00;93769.91;5091383;28;20097;-69
2023/12/23 09:54:47;;;;;;;6.45;3.30;;;;;;;5.46;100.00;93787.00;5072536;28;20052;-68
2023/12/23 09:57:15;;;;;;;2.60;1.30;;;;;;;5.38;100.00;93793.59;5091501;28;20052;-69
2023/12/23 09:59:42;;;;;;;2.33;1.03;;;;;;;5.49;100.00;93778.06;5090630;28;20412;-69
2023/12/23 10:02:09;;;;;;;3.42;1.15;;;;;;;5.25;100.00;93779.59;5091664;28;20044;-68
2023/12/23 10:04:36;;;;;;;3.17;1.40;;;;;;;5.27;100.00;93793.59;5091169;28;20521;-68
2023/12/23 10:07:03;;;;;;;2.97;1.20;;;;;;;5.18;100.00;93780.31;5073721;28;20044;-68
2023/12/23 10:09:30;;;;;;;3.72;1.63;;;;;;;5.33;100.00;93767.56;5090850;28;20051;-69
2023/12/23 10:11:57;;;;;;;2.10;1.00;;;;;;;5.37;100.00;93781.16;5091602;28;20040;-68
2023/12/23 10:14:25;;;;;;;2.00;1.10;;;;;;;5.51;100.00;93783.91;5091454;28;20407;-70
2023/12/23 10:16:53;;;;;;;2.10;1.00;;;;;;;5.26;100.00;93772.97;5090294;28;20940;-70
2023/12/23 10:19:20;;;;;;;1.88;1.00;;;;;;;5.30;100.00;93768.31;5072074;28;20065;-68
2023/12/23 10:21:51;;;;;;;2.75;1.10;;;;;;;5.29;100.00;93763.25;5090384;28;20093;-69
2023/12/23 10:24:17;;;;;;;3.13;1.30;;;;;;;5.45;100.00;93762.91;5090949;28;20442;-69
2023/12/23 10:26:45;;;;;;;2.45;0.95;;;;;;;5.42;100.00;93760.97;5104607;28;20044;-68
2023/12/23 10:29:16;;;;;;;1.67;0.80;;;;;;;5.50;100.00;93765.25;5111855;28;20039;-70
2023/12/23 10:31:48;;;;;;;1.90;0.82;;;;;;;5.31;100.00;93756.28;5110872;28;20415;-70
2023/12/23 10:34:20;;;;;;;3.05;0.80;;;;;;;5.27;100.00;93741.88;5093877;28;20465;-68
2023/12/23 10:36:48;;;;;;;4.40;1.40;;;;;;;5.36;100.00;93734.13;5090373;28;20082;-69
2023/12/23 10:39:21;;;;;;;2.90;1.20;;;;;;;5.45;100.00;93735.69;5090623;28;20669;-70
2023/12/23 10:41:57;;;;;;;2.25;1.20;;;;;;;5.46;100.00;93720.91;5089772;28;20047;-69
2023/12/23 10:44:26;;;;;;;2.28;1.10;;;;;;;5.55;100.00;93724.03;5069729;28;20040;-70
2023/12/23 10:46:54;;;;;;;2.10;0.98;;;;;;;5.28;100.00;93718.94;5051700;28;20391;-69
2023/12/23 10:49:23;;;;;;;2.10;1.00;;;;;;;5.46;100.00;93718.97;5070687;28;20079;-70
2023/12/23 10:51:51;;;;;;;1.75;0.90;;;;;;;5.70;100.00;93711.97;5069557;28;20044;-71
2023/12/23 10:54:18;;;;;;;2.08;0.90;;;;;;;5.93;100.00;93719.72;5069896;28;20478;-70
2023/12/23 10:56:45;;;;;;;2.33;0.80;;;;;;;5.99;100.00;93742.72;5069267;28;20044;-69
2023/12/23 10:59:12;;;;;;;1.88;0.70;;;;;;;6.05;100.00;93740.38;5070159;28;20051;-69
2023/12/23 11:01:41;;;;;;;1.80;0.80;;;;;;;5.98;100.00;93743.13;5069495;28;20393;-70
2023/12/23 11:04:08;;;;;;;2.28;1.10;;;;;;;6.00;100.00;93748.97;5062819;28;20051;-69
2023/12/23 11:06:39;;;;;;;2.38;0.85;;;;;;;5.80;100.00;93741.16;5068881;28;20114;-69
2023/12/23 11:09:08;;;;;;;1.77;1.05;;;;;;;5.66;100.00;93729.50;5069712;28;20051;-69
2023/12/23 11:11:36;;;;;;;2.10;0.90;;;;;;;5.88;100.00;93752.06;5069244;28;20047;-69
2023/12/23 11:14:04;;;;;;;1.90;1.10;;;;;;;5.84;100.00;93741.16;5069799;28;20041;-70
2023/12/23 11:16:31;;;;;;;2.25;0.80;;;;;;;5.80;100.00;93729.50;5069314;28;20036;-70
2023/12/23 11:18:58;;;;;;;1.90;1.10;;;;;;;5.93;100.00;93735.31;5052282;28;20048;-70
2023/12/23 11:21:25;;;;;;;2.28;0.90;;;;;;;5.78;100.00;93748.94;5069792;28;20085;-70
2023/12/23 11:23:52;;;;;;;1.63;0.77;;;;;;;5.77;100.00;93727.53;5068456;28;20587;-70
2023/12/23 11:26:37;;;;;;;1.50;0.70;;;;;;;5.69;100.00;93732.19;5068797;28;20063;-70
2023/12/23 11:29:04;;;;;;;1.90;0.90;;;;;;;5.74;100.00;93747.38;5068813;28;20138;-69
2023/12/23 11:31:31;;;;;;;2.30;1.00;;;;;;;5.54;100.00;93742.31;5068932;28;20112;-70
2023/12/23 11:33:59;;;;;;;2.85;0.90;;;;;;;5.78;100.00;93753.59;5082151;28;20048;-71